LYBELDPL

Guest
Details From LYBE - Belgrade
To LDPL - Pula
Flight Number -
Tags Generated
Created
Modified
Stats Distance 272 nm / 504 km
Max Altitude 0 ft / 0 m
Waypoints 3
Social Downloads 1
Likes 0
Share VATSIM

Download

Looking for another format? Having issues loading an existing format? Contact us
Advertisement - Login to hide

Notes

Generated

Route

LYBE KAV LDPL

ID Type Via Altitude Latitude Longitude Leg Dist Tot Dist Heading (true) Name
O LYBE APT - 0 ft / 0 m 44.82652˚ 20.29097˚ - 0 nm - -
KAV NDB - 0 ft / 0 m 44.89535˚ 14.00824˚ 267 nm 267 nm 273° / 269° KAVRAN NDB
O LDPL APT - 0 ft / 0 m 44.89313˚ 13.90359˚ 4 nm 271 nm 268° / 268° -

Altitude Profile

Advertisement - Login to hide

Weather


0- 5 10 15 20 25 30 35+ Temperature / ° C

Clouds and Precipitation
Forecast for 2018-05-22 12:00 UTC. Updated an hour ago

Ground ~20,000 ft ~40,000 ft Winds

LYBE

Details ICAO LYBE (BEG)
Name Belgrade
Region Serbia and Montenegro
Timezone Europe/Belgrade (UTC+2.0)
Stats Elevation 335 ft / 102 m (AMSL)
Location 44.818429° 20.309211°
Runways 1
Magnetic Variation 4.719° E

METAR

LYBE 221200Z 12011KT 9999 SCT040 25/16 Q1015 NOSIG

Decode

TAF

TAF LYBE 221100Z 2212/2312 13008KT 9999 SCT040 TX26/2213Z TN14/2303Z TEMPO 2212/2215 14020KT PROB30 TEMPO 2215/2218 VRB25KT 5000 TSRA SCT030CB BKN040 TEMPO 2309/2312 4000 TSRA SCT027CB BKN040

Decode

Departure Runways

ID Width Length Bearing (true) Bearing (mag) Surface Threshold Offset Overrun Length
12 148 ft / 45 m 11,138 ft / 3,395 m 122.00° 117.28° Asphalt 1,000 ft / 305 m 0 ft / 0 m
30 148 ft / 45 m 11,138 ft / 3,395 m 302.03° 297.31° Asphalt 1,312 ft / 400 m 0 ft / 0 m

LDPL

Details ICAO LDPL (PUY)
Name Pula
Region Croatia
Timezone Europe/Zagreb (UTC+2.0)
Stats Elevation 274 ft / 84 m (AMSL)
Location 44.893531° 13.922156°
Runways 1
Magnetic Variation 3.522° E

METAR

LDPL 221200Z 08012KT 9999 FEW015 22/17 Q1014 NOSIG

Decode

TAF

TAF LDPL 221125Z 2212/2312 12007KT 9999 BKN030 TX23/2212Z TN15/2302Z PROB40 TEMPO 2222/2308 18015G25KT 4000 TSRA SCT020CB BKN035 PROB30 TEMPO 2308/2312 TSRA FEW020CB BKN035

Decode

Destination Runways

ID Width Length Bearing (true) Bearing (mag) Surface Threshold Offset Overrun Length
09 148 ft / 45 m 9,601 ft / 2,926 m 88.24° 84.72° Asphalt 250 ft / 76 m 0 ft / 0 m
27 148 ft / 45 m 9,601 ft / 2,926 m 268.27° 264.75° Asphalt 250 ft / 76 m 0 ft / 0 m

Approach Navaids

Runway Type Ident Frequency Range Bearing (true) Bearing (mag) Slope Elevation
27 Localiser IPU 111.50 MHz 25 nm / 46 km 268.28° 264.76° - 157 ft / 48 m (AMSL)
27 Glidescope IPU 111.50 MHz 25 nm / 46 km 268.28° 264.76° 3.20° 243 ft / 74 m (AMSL)

Popular Alternatives